createdAt,value
2022-11-29T00:01:03.459Z,96791.13
2022-11-29T00:03:30.276Z,96793.59
2022-11-29T00:05:57.398Z,96796.03
2022-11-29T00:08:24.337Z,96794.41
2022-11-29T00:10:51.082Z,96797.84
2022-11-29T00:13:17.959Z,96791.63
2022-11-29T00:15:44.720Z,96796.84
2022-11-29T00:18:11.823Z,96796.84
2022-11-29T00:20:39.110Z,96797.66
2022-11-29T00:23:05.961Z,96797.97
2022-11-29T00:25:32.914Z,96792.91
2022-11-29T00:27:59.971Z,96792.09
2022-11-29T00:30:26.703Z,96792.09
2022-11-29T00:32:53.696Z,96800.78
2022-11-29T00:35:20.476Z,96796.50
2022-11-29T00:37:47.455Z,96797.34
2022-11-29T00:40:14.277Z,96802.41
2022-11-29T00:42:41.093Z,96798.81
2022-11-29T00:45:07.950Z,96793.56
2022-11-29T00:47:35.005Z,96794.22
2022-11-29T00:50:32.650Z,96792.56
2022-11-29T00:52:59.473Z,96790.13
2022-11-29T00:55:26.190Z,96792.75
2022-11-29T00:57:53.037Z,96796.34
2022-11-29T01:00:19.884Z,96800.44
2022-11-29T01:02:46.800Z,96802.06
2022-11-29T01:05:13.535Z,96803.69
2022-11-29T01:07:40.327Z,96794.22
2022-11-29T01:10:07.685Z,96804.38
2022-11-29T01:12:38.055Z,96803.69
2022-11-29T01:15:05.610Z,96805.34
2022-11-29T01:17:32.540Z,96807.97
2022-11-29T01:19:59.267Z,96809.63
2022-11-29T01:22:28.571Z,96811.38
2022-11-29T01:24:55.401Z,96809.63
2022-11-29T01:27:22.292Z,96819.25
2022-11-29T01:29:49.218Z,96815.81
2022-11-29T01:32:15.984Z,96812.25
2022-11-29T01:34:43.226Z,96816.50
2022-11-29T01:37:10.314Z,96811.25
2022-11-29T01:39:37.169Z,96820.75
2022-11-29T01:42:03.979Z,96816.50
2022-11-29T01:44:31.055Z,96811.09
2022-11-29T01:46:58.120Z,96814.53
2022-11-29T01:49:27.387Z,96815.34
2022-11-29T01:52:01.470Z,96821.41
2022-11-29T01:54:29.103Z,96819.75
2022-11-29T01:56:55.799Z,96830.25
2022-11-29T01:59:23.433Z,96827.63
2022-11-29T02:01:50.227Z,96827.63
2022-11-29T02:04:17.215Z,96828.28
2022-11-29T02:06:44.295Z,96832.84
2022-11-29T02:09:22.382Z,96832.84
2022-11-29T02:11:58.905Z,96828.09
2022-11-29T02:14:35.519Z,96828.28
2022-11-29T02:17:11.429Z,96828.28
2022-11-29T02:19:47.197Z,96825.00
2022-11-29T02:22:23.283Z,96831.53
2022-11-29T02:24:58.112Z,96829.91
2022-11-29T02:27:43.103Z,96824.19
2022-11-29T02:30:09.799Z,96831.41
2022-11-29T02:32:48.981Z,96832.22
2022-11-29T02:35:34.110Z,96836.47
2022-11-29T02:38:06.956Z,96828.59
2022-11-29T02:40:36.740Z,96834.50
2022-11-29T02:43:23.749Z,96834.31
2022-11-29T02:46:09.181Z,96834.31
2022-11-29T02:48:50.506Z,96840.06
2022-11-29T02:51:35.756Z,96840.06
2022-11-29T02:54:17.113Z,96839.22
2022-11-29T02:56:49.985Z,96836.78
2022-11-29T02:59:19.788Z,96844.00
2022-11-29T03:01:49.044Z,96847.25
2022-11-29T03:04:18.615Z,96848.72
2022-11-29T03:06:51.856Z,96847.25
2022-11-29T03:09:24.589Z,96851.50
2022-11-29T03:11:53.471Z,96849.38
2022-11-29T03:14:23.706Z,96855.78
2022-11-29T03:17:09.323Z,96857.41
2022-11-29T03:19:54.895Z,96855.78
2022-11-29T03:22:21.608Z,96859.38
2022-11-29T03:24:55.253Z,96868.88
2022-11-29T03:27:24.354Z,96868.22
2022-11-29T03:29:53.397Z,96868.06
2022-11-29T03:32:20.026Z,96875.91
2022-11-29T03:35:07.896Z,96871.50
2022-11-29T03:37:34.683Z,96873.94
2022-11-29T03:40:04.594Z,96867.88
2022-11-29T03:42:31.346Z,96875.75
2022-11-29T03:45:16.682Z,96875.75
2022-11-29T03:47:52.908Z,96880.34
2022-11-29T03:50:21.501Z,96871.50
2022-11-29T03:52:50.189Z,96874.28
2022-11-29T03:55:31.811Z,96882.78
2022-11-29T03:58:20.537Z,96883.59
2022-11-29T04:00:50.226Z,96883.78
2022-11-29T04:03:35.811Z,96883.78
2022-11-29T04:06:02.513Z,96885.25
2022-11-29T04:08:35.509Z,96883.78
2022-11-29T04:11:08.423Z,96889.19
2022-11-29T04:13:44.233Z,96886.56
2022-11-29T04:16:14.697Z,96895.06
2022-11-29T04:18:47.662Z,96892.44
2022-11-29T04:21:33.220Z,96890.47
2022-11-29T04:24:21.843Z,96898.34
2022-11-29T04:27:00.651Z,96898.34
2022-11-29T04:29:44.679Z,96900.97
2022-11-29T04:32:23.653Z,96907.84
2022-11-29T04:34:51.117Z,96904.56
2022-11-29T04:37:28.239Z,96903.09
2022-11-29T04:39:54.908Z,96908.16
2022-11-29T04:42:40.385Z,96912.59
2022-11-29T04:45:35.663Z,96911.44
2022-11-29T04:48:10.817Z,96914.72
2022-11-29T04:50:59.423Z,96916.34
2022-11-29T04:53:29.718Z,96927.81
2022-11-29T04:56:04.649Z,96932.88
2022-11-29T04:58:40.378Z,96926.00
2022-11-29T05:01:13.324Z,96932.06
2022-11-29T05:03:56.872Z,96924.84
2022-11-29T05:06:35.942Z,96935.34
2022-11-29T05:09:21.556Z,96940.56
2022-11-29T05:12:08.733Z,96943.03
2022-11-29T05:14:42.719Z,96949.13
2022-11-29T05:17:22.053Z,96939.94
2022-11-29T05:19:51.661Z,96942.41
2022-11-29T05:22:29.661Z,96947.47
2022-11-29T05:24:56.438Z,96941.91
2022-11-29T05:27:23.119Z,96954.19
2022-11-29T05:29:56.052Z,96954.34
2022-11-29T05:32:46.988Z,96950.75
2022-11-29T05:35:16.953Z,96955.81
2022-11-29T05:37:45.848Z,96955.16
2022-11-29T05:40:42.030Z,96964.84
2022-11-29T05:43:27.649Z,96963.03
2022-11-29T05:46:03.425Z,96965.81
2022-11-29T05:48:33.969Z,96970.06
2022-11-29T05:51:11.527Z,96969.25
2022-11-29T05:53:47.240Z,96970.91
2022-11-29T05:56:32.654Z,96968.75
2022-11-29T05:59:00.678Z,96973.19
2022-11-29T06:01:46.539Z,96975.97
2022-11-29T06:04:18.522Z,96977.94
2022-11-29T06:06:49.673Z,96984.97
2022-11-29T06:09:21.948Z,96989.72
2022-11-29T06:12:02.957Z,96991.69
2022-11-29T06:14:48.584Z,97003.31
2022-11-29T06:17:26.016Z,97002.50
2022-11-29T06:20:04.491Z,97006.13
2022-11-29T06:22:45.428Z,97013.81
2022-11-29T06:25:22.447Z,97013.00
2022-11-29T06:27:49.185Z,97011.22
2022-11-29T06:30:18.738Z,97007.25
2022-11-29T06:32:53.688Z,97018.88
2022-11-29T06:35:27.930Z,97024.13
2022-11-29T06:37:55.410Z,97023.47
2022-11-29T06:40:22.515Z,97026.44
2022-11-29T06:42:52.289Z,97029.03
2022-11-29T06:45:19.157Z,97035.91
2022-11-29T06:47:59.163Z,97036.75
2022-11-29T06:50:43.610Z,97037.56
2022-11-29T06:53:22.614Z,97038.22
2022-11-29T08:34:09.577Z,97119.28
2022-11-29T08:36:36.743Z,97115.53
2022-11-29T08:39:09.291Z,97112.91
2022-11-29T08:41:37.496Z,97119.13
2022-11-29T08:44:07.714Z,97124.22
2022-11-29T08:46:53.203Z,97122.72
2022-11-29T08:49:20.263Z,97123.41
2022-11-29T08:51:47.099Z,97131.25
2022-11-29T08:54:14.598Z,97134.84
2022-11-29T08:59:28.382Z,97131.94
2022-11-29T09:01:55.151Z,97139.00
2022-11-29T09:04:22.185Z,97149.94
2022-11-29T09:06:51.951Z,97153.19
2022-11-29T09:09:18.752Z,97156.78
2022-11-29T09:11:49.220Z,97152.81
2022-11-29T09:14:16.425Z,97164.34
2022-11-29T09:16:43.623Z,97171.22
2022-11-29T09:19:10.615Z,97168.28
2022-11-29T09:21:37.573Z,97172.38
2022-11-29T09:24:06.717Z,97178.50
2022-11-29T09:26:34.338Z,97175.56
2022-11-29T09:29:05.128Z,97183.75
2022-11-29T09:31:32.290Z,97180.00
2022-11-29T09:33:59.235Z,97188.69
2022-11-29T09:36:28.908Z,97196.56
2022-11-29T09:38:56.992Z,97191.63
2022-11-29T09:41:50.051Z,97196.59
2022-11-29T10:43:41.458Z,97219.22
2022-11-29T10:46:10.370Z,97216.19
2022-11-29T10:48:36.864Z,97222.97
2022-11-29T10:51:03.524Z,97238.91
2022-11-29T10:53:36.115Z,97233.38
2022-11-29T10:56:09.724Z,97235.19
2022-11-29T10:58:36.325Z,97232.13
2022-11-29T11:01:07.016Z,97236.72
2022-11-29T11:03:34.848Z,97235.25
2022-11-29T11:06:06.559Z,97231.47
2022-11-29T11:08:33.419Z,97227.22
2022-11-29T11:11:02.082Z,97230.13
2022-11-29T11:13:29.974Z,97231.63
2022-11-29T11:15:57.883Z,97221.63
2022-11-29T11:18:26.712Z,97221.53
2022-11-29T11:20:54.516Z,97217.00
2022-11-29T11:23:24.965Z,97227.59
2022-11-29T11:26:02.145Z,97220.63
2022-11-29T11:28:30.444Z,97224.66
2022-11-29T11:31:05.812Z,97234.47
2022-11-29T11:33:34.431Z,97231.22
2022-11-29T11:36:02.458Z,97229.09
2022-11-29T11:38:29.369Z,97230.28
2022-11-29T11:41:05.048Z,97229.97
2022-11-29T11:43:31.678Z,97234.50
2022-11-29T11:45:58.294Z,97232.97
2022-11-29T11:48:24.830Z,97242.84
2022-11-29T11:50:51.336Z,97238.78
2022-11-29T11:53:25.329Z,97240.63
2022-11-29T11:55:56.478Z,97237.03
2022-11-29T11:58:23.613Z,97236.41
2022-11-29T12:01:07.088Z,97243.78
2022-11-29T12:03:33.715Z,97242.97
2022-11-29T12:06:03.988Z,97247.56
2022-11-29T12:08:31.022Z,97242.94
2022-11-29T12:11:02.817Z,97239.66
2022-11-29T12:13:33.768Z,97239.84
2022-11-29T12:16:01.223Z,97237.38
2022-11-29T12:18:35.292Z,97242.78
2022-11-29T12:21:04.099Z,97248.53
2022-11-29T12:23:30.652Z,97248.88
2022-11-29T12:26:01.319Z,97253.13
2022-11-29T12:28:35.354Z,97250.97
2022-11-29T12:31:05.059Z,97264.25
2022-11-29T12:33:34.431Z,97261.63
2022-11-29T12:36:05.403Z,97257.69
2022-11-29T12:38:48.802Z,97272.66
2022-11-29T12:41:33.721Z,97266.88
2022-11-29T12:44:22.665Z,97268.53
2022-11-29T12:46:57.965Z,97268.56
2022-11-29T12:49:46.854Z,97273.47
2022-11-29T12:52:25.919Z,97273.16
2022-11-29T12:54:57.059Z,97284.47
2022-11-29T12:57:39.005Z,97287.22
2022-11-29T13:00:08.843Z,97274.28
2022-11-29T13:02:41.603Z,97282.50
2022-11-29T13:05:27.129Z,97288.75
2022-11-29T13:07:53.838Z,97286.44
2022-11-29T13:10:26.650Z,97292.84
2022-11-29T13:12:55.964Z,97285.13
2022-11-29T13:15:23.917Z,97295.75
2022-11-29T13:17:53.510Z,97297.72
2022-11-29T13:20:30.056Z,97292.34
2022-11-29T13:22:59.083Z,97296.13
2022-11-29T13:25:36.557Z,97297.09
2022-11-29T13:28:11.525Z,97299.06
2022-11-29T13:30:38.198Z,97307.31
2022-11-29T13:33:12.775Z,97304.00
2022-11-29T13:35:39.301Z,97304.00
2022-11-29T13:38:14.951Z,97303.84
2022-11-29T13:40:49.043Z,97306.63
2022-11-29T13:43:21.197Z,97302.56
2022-11-29T13:46:01.450Z,97297.75
2022-11-29T13:48:36.218Z,97291.53
2022-11-29T13:51:22.953Z,97299.41
2022-11-29T13:53:49.679Z,97302.53
2022-11-29T13:56:37.014Z,97299.41
2022-11-29T13:59:06.293Z,97299.91
2022-11-29T14:01:42.839Z,97301.72
2022-11-29T14:04:24.696Z,97302.06
2022-11-29T14:07:00.573Z,97299.41
2022-11-29T14:09:28.089Z,97296.44
2022-11-29T14:12:14.954Z,97301.22
2022-11-29T14:14:47.923Z,97310.91
2022-11-29T14:17:34.177Z,97312.84
2022-11-29T14:20:19.515Z,97307.78
2022-11-29T14:23:04.427Z,97314.00
2022-11-29T14:28:18.267Z,97314.47
2022-11-29T14:30:46.341Z,97305.94
2022-11-29T14:33:12.864Z,97305.91
2022-11-29T14:35:58.137Z,97304.75
2022-11-29T14:38:31.167Z,97305.88
2022-11-29T14:41:03.392Z,97315.06
2022-11-29T14:43:33.445Z,97317.31
2022-11-29T14:46:07.669Z,97314.84
2022-11-29T14:48:34.410Z,97319.28
2022-11-29T14:51:08.199Z,97316.31
2022-11-29T14:53:35.501Z,97327.13
2022-11-29T14:56:20.906Z,97324.69
2022-11-29T14:58:47.519Z,97323.34
2022-11-29T15:01:14.183Z,97319.53
2022-11-29T15:03:45.821Z,97326.75
2022-11-29T15:06:14.771Z,97322.31
2022-11-29T15:08:48.342Z,97326.09
2022-11-29T15:11:18.003Z,97326.25
2022-11-29T15:14:03.631Z,97336.91
2022-11-29T15:16:39.330Z,97330.00
2022-11-29T15:19:24.817Z,97331.00
2022-11-29T15:21:51.378Z,97325.75
2022-11-29T15:24:18.658Z,97329.34
2022-11-29T15:26:56.710Z,97325.25
2022-11-29T15:29:23.368Z,97329.78
2022-11-29T15:31:51.364Z,97339.94
2022-11-29T15:34:24.021Z,97332.53
2022-11-29T15:36:50.723Z,97332.03
2022-11-29T15:39:25.019Z,97332.19
2022-11-29T15:41:51.659Z,97336.47
2022-11-29T15:44:22.388Z,97333.19
2022-11-29T15:46:49.068Z,97335.09
2022-11-29T15:49:16.624Z,97336.06
2022-11-29T15:51:43.236Z,97335.56
2022-11-29T15:54:14.663Z,97339.13
2022-11-29T15:56:43.489Z,97341.09
2022-11-29T15:59:15.036Z,97342.06
2022-11-29T16:01:42.829Z,97341.25
2022-11-29T16:04:12.395Z,97340.59
2022-11-29T16:06:40.561Z,97346.97
2022-11-29T16:09:08.219Z,97348.75
2022-11-29T16:11:36.900Z,97351.53
2022-11-29T16:14:03.514Z,97351.69
2022-11-29T16:16:32.832Z,97349.06
2022-11-29T16:19:08.362Z,97349.91
2022-11-29T16:21:34.903Z,97356.78
2022-11-29T16:24:11.221Z,97358.75
2022-11-29T16:26:39.360Z,97366.72
2022-11-29T16:29:06.286Z,97364.09
2022-11-29T16:31:36.806Z,97362.78
2022-11-29T16:34:07.792Z,97360.16
2022-11-29T16:36:34.804Z,97365.38
2022-11-29T16:39:01.575Z,97365.38
2022-11-29T16:41:35.067Z,97362.78
2022-11-29T16:44:03.413Z,97370.63
2022-11-29T16:46:33.026Z,97369.00
2022-11-29T16:49:01.054Z,97372.59
2022-11-29T16:51:27.650Z,97371.75
2022-11-29T16:53:54.887Z,97373.56
2022-11-29T16:56:24.949Z,97376.34
2022-11-29T16:59:25.482Z,97373.22
2022-11-29T17:01:42.375Z,97378.44
2022-11-29T17:04:09.186Z,97377.97
2022-11-29T17:06:35.799Z,97389.28
2022-11-29T17:09:02.437Z,97393.84
2022-11-29T17:11:29.068Z,97390.56
2022-11-29T17:13:55.988Z,97390.56
2022-11-29T17:16:23.491Z,97384.81
2022-11-29T17:18:50.344Z,97388.41
2022-11-29T17:21:21.065Z,97383.31
2022-11-29T17:23:47.776Z,97384.28
2022-11-29T17:26:15.626Z,97383.09
2022-11-29T17:28:46.159Z,97381.91
2022-11-29T17:31:13.354Z,97381.59
2022-11-29T17:33:40.030Z,97382.72
2022-11-29T17:36:10.676Z,97382.22
2022-11-29T17:38:37.276Z,97390.22
2022-11-29T17:41:08.283Z,97386.09
2022-11-29T17:43:35.335Z,97396.88
2022-11-29T17:46:12.058Z,97396.50
2022-11-29T17:48:38.923Z,97401.06
2022-11-29T17:51:17.267Z,97405.47
2022-11-29T17:53:53.230Z,97405.78
2022-11-29T18:00:00.306Z,97410.63
2022-11-29T18:02:26.892Z,97412.16
2022-11-29T18:04:53.591Z,97412.97
2022-11-29T18:07:20.311Z,97417.53
2022-11-29T18:09:48.579Z,97415.72
2022-11-29T18:12:15.200Z,97420.16
2022-11-29T18:14:41.879Z,97422.63
2022-11-29T18:17:08.607Z,97416.41
2022-11-29T18:19:35.529Z,97422.47
2022-11-29T18:22:02.954Z,97414.31
2022-11-29T18:24:29.470Z,97421.84
2022-11-29T18:26:56.044Z,97428.06
2022-11-29T18:29:23.378Z,97424.94
